EBCI

Brussels South Charleroi Airport

Airport
ICAO code
EBCI
Summary
ICAO Region
EUR
ICAO Territory
Location

Charleroi,

Coordinates
50° 27' 46" N , 4° 27' 42" E
KCC
Metar
Observation
EBCI 252120Z 24006KT 9999 FEW019 09/08 Q1014 NOSIG
Station
Charleroi / Gosselies
Date/Time
2022-09-25 21:20:00
Wind direction
240°
Wind speed
06 kts
Lowest cloud amount
few clouds
Temperature
9°C
Dew point
8°C
Humidity
93%
QNH
1014 hPa
Weather condition
n/a

Description

Charleroi airport is an international airport located in Gosselies, 46 km south of Brussels.

Climatology

Temperate Marine climate/Oceanic climate (Köppen climate classification Cfb). Moderately cool summer and comparatively warm winter with a temperature range of only 14°C. Prevailing south-westerly winds from the Atlantic Ocean.

Runways

Designator Length Width Surface Rops
7/25 2550 45 ASP Yes/Yes

Airport map

Aerial View

SKYbrary Partners:

Safety knowledge contributed by: